createdAt,value
2023-04-18T03:08:30.846Z,100712.70
2023-04-18T03:10:59.217Z,100716.09
2023-04-18T03:13:27.815Z,100718.67
2023-04-18T03:15:56.501Z,100715.67
2023-04-18T03:18:25.836Z,100717.10
2023-04-18T03:20:54.761Z,100720.52
2023-04-18T03:23:23.048Z,100719.39
2023-04-18T03:25:51.001Z,100721.02
2023-04-18T03:28:19.395Z,100719.85
2023-04-18T03:30:47.455Z,100725.59
2023-04-18T03:33:17.146Z,100728.95
2023-04-18T03:35:46.698Z,100731.61
2023-04-18T03:38:14.760Z,100735.15
2023-04-18T03:40:44.515Z,100731.27
2023-04-18T03:43:20.487Z,100733.77
2023-04-18T03:45:48.537Z,100733.84
2023-04-18T03:48:16.873Z,100735.34
2023-04-18T03:50:44.933Z,100735.53
2023-04-18T03:53:12.811Z,100739.23
2023-04-18T03:55:41.704Z,100740.16
2023-04-18T03:58:09.867Z,100741.83
2023-04-18T04:00:38.100Z,100740.66
2023-04-18T04:03:07.923Z,100740.63
2023-04-18T04:05:36.130Z,100734.10
2023-04-18T04:08:04.709Z,100732.40
2023-04-18T04:10:32.634Z,100736.52
2023-04-18T04:13:00.510Z,100733.34
2023-04-18T04:15:28.723Z,100732.57
2023-04-18T04:18:02.256Z,100733.82
2023-04-18T04:20:30.707Z,100735.96
2023-04-18T04:23:08.211Z,100734.30
2023-04-18T04:25:36.670Z,100737.30
2023-04-18T04:28:08.430Z,100734.80
2023-04-18T04:30:44.056Z,100736.31
2023-04-18T04:33:12.549Z,100736.18
2023-04-18T04:35:41.910Z,100737.93
2023-04-18T04:38:09.826Z,100727.42
2023-04-18T04:40:44.218Z,100733.79
2023-04-18T04:43:15.639Z,100729.39
2023-04-18T04:45:45.357Z,100727.95
2023-04-18T04:48:13.608Z,100733.43
2023-04-18T04:50:42.658Z,100725.05
2023-04-18T04:53:12.590Z,100714.53
2023-04-18T04:55:41.474Z,100734.25
2023-04-18T04:58:09.321Z,100752.41
2023-04-18T05:00:57.250Z,100746.45
2023-04-18T05:03:25.532Z,100749.35
2023-04-18T05:05:53.729Z,100752.18
2023-04-18T05:08:22.114Z,100749.62
2023-04-18T05:10:51.183Z,100748.51
2023-04-18T05:13:19.182Z,100752.55
2023-04-18T05:15:47.108Z,100755.94
2023-04-18T05:18:16.553Z,100752.27
2023-04-18T05:20:44.454Z,100750.79
2023-04-18T05:23:12.363Z,100751.09
2023-04-18T05:25:40.620Z,100752.23
2023-04-18T05:28:08.528Z,100750.77
2023-04-18T05:30:36.670Z,100748.75
2023-04-18T05:33:04.799Z,100753.52
2023-04-18T05:35:32.630Z,100759.57
2023-04-18T05:38:00.575Z,100762.88
2023-04-18T05:40:28.716Z,100759.97
2023-04-18T05:42:56.659Z,100764.85
2023-04-18T05:45:24.502Z,100763.98
2023-04-18T05:47:54.005Z,100761.79
2023-04-18T05:50:23.175Z,100760.25
2023-04-18T05:52:51.384Z,100761.13
2023-04-18T05:55:19.888Z,100761.46
2023-04-18T05:57:47.828Z,100760.64
2023-04-18T06:00:17.341Z,100758.34
2023-04-18T06:02:45.369Z,100755.55
2023-04-18T06:05:13.429Z,100757.90
2023-04-18T06:07:42.377Z,100756.34
2023-04-18T06:10:13.465Z,100755.95
2023-04-18T06:12:42.291Z,100762.10
2023-04-18T06:15:10.929Z,100756.39
2023-04-18T06:17:39.227Z,100759.86
2023-04-18T06:20:07.981Z,100761.58
2023-04-18T06:22:36.099Z,100766.05
2023-04-18T06:25:04.459Z,100764.68
2023-04-18T06:27:33.015Z,100762.08
2023-04-18T06:30:00.972Z,100760.31
2023-04-18T06:32:28.940Z,100761.45
2023-04-18T06:34:56.894Z,100763.84
2023-04-18T06:37:24.881Z,100760.90
2023-04-18T06:39:52.784Z,100762.37
2023-04-18T06:42:22.386Z,100761.42
2023-04-18T06:44:50.688Z,100763.84
2023-04-18T06:47:18.629Z,100764.02
2023-04-18T06:49:46.471Z,100764.65
2023-04-18T06:52:14.564Z,100766.98
2023-04-18T06:54:42.956Z,100766.39
2023-04-18T06:57:10.963Z,100765.52
2023-04-18T06:59:38.909Z,100764.15
2023-04-18T07:02:08.280Z,100758.72
2023-04-18T07:04:36.429Z,100759.41
2023-04-18T07:07:05.330Z,100761.31
2023-04-18T07:09:33.494Z,100760.89
2023-04-18T07:12:01.217Z,100757.79
2023-04-18T07:14:30.430Z,100755.06
2023-04-18T07:17:00.974Z,100759.11
2023-04-18T07:19:29.021Z,100763.23
2023-04-18T07:21:56.884Z,100762.89
2023-04-18T07:24:24.836Z,100758.89
2023-04-18T07:26:54.921Z,100754.55
2023-04-18T07:29:23.228Z,100754.42
2023-04-18T07:31:51.596Z,100753.02
2023-04-18T07:34:19.631Z,100750.71
2023-04-18T07:36:47.577Z,100755.64
2023-04-18T07:39:15.575Z,100748.02
2023-04-18T07:41:43.917Z,100750.98
2023-04-18T07:44:12.040Z,100749.33
2023-04-18T07:46:40.209Z,100743.43
2023-04-18T07:49:08.271Z,100743.34
2023-04-18T07:51:36.270Z,100741.73
2023-04-18T07:54:04.196Z,100741.86
2023-04-18T07:56:32.216Z,100741.42
2023-04-18T07:59:00.307Z,100739.89
2023-04-18T08:01:29.229Z,100733.53
2023-04-18T08:04:01.599Z,100733.96
2023-04-18T08:06:30.254Z,100732.45
2023-04-18T08:08:59.258Z,100729.05
2023-04-18T08:11:27.123Z,100731.14
2023-04-18T08:13:55.161Z,100731.05
2023-04-18T08:16:23.144Z,100731.05
2023-04-18T08:18:51.245Z,100730.88
2023-04-18T08:21:19.780Z,100730.04
2023-04-18T08:23:47.649Z,100723.17
2023-04-18T08:26:15.569Z,100729.67
2023-04-18T08:28:46.289Z,100725.26
2023-04-18T08:31:15.283Z,100724.92
2023-04-18T08:33:43.324Z,100727.73
2023-04-18T08:36:12.230Z,100726.46
2023-04-18T08:38:42.226Z,100723.24
2023-04-18T08:41:09.997Z,100722.56
2023-04-18T08:43:37.900Z,100718.50
2023-04-18T08:46:06.710Z,100719.11
2023-04-18T08:48:34.839Z,100717.25
2023-04-18T08:51:03.134Z,100713.95
2023-04-18T08:53:32.504Z,100711.25
2023-04-18T08:56:01.566Z,100717.38
2023-04-18T08:58:32.640Z,100711.30
2023-04-18T09:01:00.997Z,100711.94
2023-04-18T09:03:41.386Z,100706.73
2023-04-18T09:06:19.287Z,100704.81
2023-04-18T09:08:59.138Z,100703.29
2023-04-18T09:11:29.510Z,100699.54
2023-04-18T09:13:59.103Z,100699.63
2023-04-18T09:16:28.085Z,100699.79
2023-04-18T09:19:23.918Z,100699.40
2023-04-18T09:21:59.269Z,100696.89
2023-04-18T09:24:28.676Z,100700.06
2023-04-18T09:26:57.141Z,100703.28
2023-04-18T09:29:46.211Z,100707.41
2023-04-18T09:32:27.268Z,100704.39
2023-04-18T09:34:58.355Z,100706.15
2023-04-18T09:37:26.619Z,100711.43
2023-04-18T09:39:54.972Z,100706.48
2023-04-18T09:42:22.900Z,100702.02
2023-04-18T09:45:05.129Z,100703.13
2023-04-18T09:47:35.097Z,100702.80
2023-04-18T09:50:07.825Z,100702.45
2023-04-18T09:52:40.673Z,100700.93
2023-04-18T09:55:10.495Z,100699.15
2023-04-18T09:57:42.491Z,100698.02
2023-04-18T10:00:21.616Z,100696.07
2023-04-18T10:03:08.880Z,100695.25
2023-04-18T10:05:39.162Z,100693.05
2023-04-18T10:08:08.504Z,100691.85
2023-04-18T10:10:38.902Z,100687.92
2023-04-18T10:13:08.605Z,100691.84
2023-04-18T10:15:36.598Z,100686.44
2023-04-18T10:18:16.352Z,100681.89
2023-04-18T10:20:46.408Z,100680.80
2023-04-18T10:23:40.882Z,100681.41
2023-04-18T10:26:12.121Z,100678.58
2023-04-18T10:28:53.678Z,100676.89
2023-04-18T10:31:23.151Z,100675.20
2023-04-18T10:36:29.097Z,100675.86
2023-04-18T10:39:19.324Z,100673.95
2023-04-18T10:41:51.087Z,100674.71
2023-04-18T10:44:21.923Z,100679.36
2023-04-18T10:46:52.876Z,100679.97
2023-04-18T10:49:21.950Z,100678.30
2023-04-18T10:52:01.430Z,100679.05
2023-04-18T10:54:42.393Z,100682.96
2023-04-18T10:57:11.361Z,100688.33
2023-04-18T10:59:43.643Z,100686.61
2023-04-18T11:02:29.619Z,100688.65
2023-04-18T11:04:58.592Z,100694.19
2023-04-18T11:07:36.165Z,100696.88
2023-04-18T11:10:05.528Z,100695.09
2023-04-18T11:12:36.306Z,100696.96
2023-04-18T11:15:25.395Z,100702.02
2023-04-18T11:18:04.071Z,100710.09
2023-04-18T11:20:47.739Z,100709.84
2023-04-18T11:23:21.502Z,100712.30
2023-04-18T11:25:51.598Z,100709.05
2023-04-18T11:28:21.314Z,100710.60
2023-04-18T11:30:49.483Z,100710.66
2023-04-18T11:33:18.065Z,100708.27
2023-04-18T11:35:46.481Z,100703.35
2023-04-18T11:38:15.183Z,100706.83
2023-04-18T11:40:49.659Z,100700.95
2023-04-18T11:43:21.832Z,100706.19
2023-04-18T11:45:56.440Z,100708.14
2023-04-18T11:48:24.966Z,100709.00
2023-04-18T11:50:54.948Z,100711.46
2023-04-18T11:53:36.169Z,100710.27
2023-04-18T11:56:04.681Z,100707.80
2023-04-18T11:58:36.484Z,100711.61
2023-04-18T12:01:17.318Z,100711.94
2023-04-18T12:04:02.305Z,100712.77
2023-04-18T12:06:50.032Z,100714.58
2023-04-18T12:09:18.249Z,100717.82
2023-04-18T12:12:02.782Z,100717.98
2023-04-18T12:14:31.378Z,100714.69
2023-04-18T12:16:59.301Z,100709.21
2023-04-18T12:19:28.226Z,100711.23
2023-04-18T12:22:00.784Z,100705.23
2023-04-18T12:24:36.163Z,100700.67
2023-04-18T12:27:03.951Z,100695.52
2023-04-18T12:29:31.911Z,100698.14
2023-04-18T12:31:59.803Z,100688.45
2023-04-18T12:34:27.937Z,100690.14
2023-04-18T12:36:55.746Z,100689.08
2023-04-18T12:39:23.707Z,100684.64
2023-04-18T12:41:51.653Z,100681.48
2023-04-18T12:44:19.630Z,100680.33
2023-04-18T12:46:47.672Z,100680.44
2023-04-18T12:49:16.053Z,100678.67
2023-04-18T12:51:43.985Z,100678.95
2023-04-18T12:54:11.982Z,100672.61
2023-04-18T12:56:40.168Z,100672.27
2023-04-18T12:59:08.028Z,100668.85
2023-04-18T13:01:36.645Z,100663.35
2023-04-18T13:04:12.253Z,100658.89
2023-04-18T13:06:40.907Z,100656.59
2023-04-18T13:09:09.397Z,100650.70
2023-04-18T13:11:37.318Z,100651.27
2023-04-18T13:14:05.375Z,100653.19
2023-04-18T13:16:33.369Z,100654.07
2023-04-18T13:19:01.724Z,100656.08
2023-04-18T13:21:30.010Z,100658.92
2023-04-18T13:23:57.829Z,100662.80
2023-04-18T13:26:25.841Z,100661.58
2023-04-18T13:28:53.672Z,100659.84
2023-04-18T13:31:22.697Z,100657.58
2023-04-18T13:33:51.814Z,100644.45
2023-04-18T13:36:19.665Z,100637.92
2023-04-18T13:38:48.031Z,100640.02
2023-04-18T13:41:16.278Z,100638.15
2023-04-18T13:43:44.188Z,100636.20
2023-04-18T13:46:12.213Z,100638.86
2023-04-18T13:48:40.524Z,100634.33
2023-04-18T13:51:08.391Z,100628.98
2023-04-18T13:53:36.299Z,100628.45
2023-04-18T13:56:05.073Z,100627.69
2023-04-18T13:58:32.986Z,100626.31
2023-04-18T14:01:00.931Z,100625.55
2023-04-18T14:03:29.743Z,100622.88
2023-04-18T14:05:59.335Z,100622.84
2023-04-18T14:08:28.463Z,100624.35
2023-04-18T14:10:56.248Z,100620.07
2023-04-18T14:13:24.303Z,100611.84
2023-04-18T14:15:52.993Z,100612.52
2023-04-18T14:18:21.912Z,100608.81
2023-04-18T14:20:50.361Z,100608.02
2023-04-18T14:23:18.334Z,100605.52
2023-04-18T14:25:46.869Z,100609.56
2023-04-18T14:28:15.975Z,100614.10
2023-04-18T14:30:44.351Z,100609.08
2023-04-18T14:33:12.723Z,100609.75
2023-04-18T14:35:40.818Z,100609.98
2023-04-18T14:38:08.976Z,100600.08
2023-04-18T14:40:36.880Z,100604.73
2023-04-18T14:43:04.843Z,100603.27
2023-04-18T14:45:34.148Z,100599.63
2023-04-18T14:48:02.060Z,100596.02
2023-04-18T14:50:30.865Z,100595.02
2023-04-18T14:52:58.717Z,100597.80
2023-04-18T14:55:26.556Z,100599.43
2023-04-18T14:57:55.112Z,100598.02
2023-04-18T15:00:23.121Z,100602.92
2023-04-18T15:02:51.219Z,100599.95
2023-04-18T15:05:20.549Z,100600.89
2023-04-18T15:07:48.470Z,100596.77
2023-04-18T15:10:17.005Z,100595.83
2023-04-18T15:12:46.873Z,100591.49
2023-04-18T15:15:14.805Z,100588.76
2023-04-18T15:17:42.885Z,100592.77
2023-04-18T15:20:11.240Z,100588.07
2023-04-18T15:22:39.594Z,100585.04
2023-04-18T15:26:48.004Z,100579.14
2023-04-18T15:29:16.151Z,100577.97
2023-04-18T15:31:44.249Z,100576.23
2023-04-18T15:34:12.485Z,100573.60
2023-04-18T15:36:41.436Z,100569.85
2023-04-18T15:39:09.587Z,100568.50
2023-04-18T15:41:37.615Z,100566.79
2023-04-18T15:44:07.894Z,100563.13
2023-04-18T15:46:36.554Z,100556.88
2023-04-18T15:49:05.336Z,100554.27
2023-04-18T15:51:33.405Z,100556.00
2023-04-18T15:54:01.602Z,100553.47
2023-04-18T15:56:33.081Z,100553.80
2023-04-18T15:59:02.704Z,100554.63
2023-04-18T16:01:32.175Z,100554.16
2023-04-18T16:04:00.141Z,100550.54
2023-04-18T16:06:29.908Z,100549.94
2023-04-18T16:08:58.418Z,100549.14
2023-04-18T16:11:26.583Z,100552.97
2023-04-18T16:13:54.975Z,100551.17
2023-04-18T16:16:23.146Z,100550.80
2023-04-18T16:18:51.264Z,100547.61
2023-04-18T16:21:19.156Z,100542.75
2023-04-18T16:23:48.790Z,100549.84
2023-04-18T16:26:16.626Z,100552.52
2023-04-18T16:28:44.517Z,100546.02
2023-04-18T16:31:12.668Z,100552.93
2023-04-18T16:33:40.739Z,100550.47
2023-04-18T16:36:09.231Z,100549.65
2023-04-18T16:38:37.365Z,100548.20
2023-04-18T16:41:05.993Z,100546.97
2023-04-18T16:43:38.047Z,100548.02
2023-04-18T16:46:06.506Z,100542.92
2023-04-18T16:48:37.949Z,100542.30
2023-04-18T16:51:05.858Z,100538.23
2023-04-18T16:53:36.109Z,100534.39
2023-04-18T16:56:04.334Z,100538.55
2023-04-18T16:58:32.389Z,100537.36
2023-04-18T17:01:02.212Z,100538.98
2023-04-18T17:03:30.394Z,100537.48
2023-04-18T17:05:58.584Z,100535.75
2023-04-18T17:08:28.592Z,100531.47
2023-04-18T17:10:56.422Z,100532.38
2023-04-18T17:13:27.306Z,100533.44
2023-04-18T17:15:55.816Z,100528.66
2023-04-18T17:18:24.623Z,100533.95
2023-04-18T17:20:52.693Z,100531.38
2023-04-18T17:23:22.156Z,100531.49
2023-04-18T17:25:50.334Z,100528.73
2023-04-18T17:28:18.863Z,100528.60
2023-04-18T17:30:46.854Z,100525.54
2023-04-18T17:33:14.697Z,100527.20
2023-04-18T17:35:42.662Z,100523.30
2023-04-18T17:38:10.856Z,100518.64
2023-04-18T17:40:39.741Z,100518.44
2023-04-18T17:43:07.714Z,100523.67
2023-04-18T17:45:35.913Z,100517.79
2023-04-18T17:48:04.525Z,100515.80
2023-04-18T17:50:33.545Z,100517.27
2023-04-18T17:53:01.935Z,100513.50
2023-04-18T17:55:30.311Z,100516.15
2023-04-18T17:57:58.150Z,100512.96
2023-04-18T18:00:26.167Z,100514.49
2023-04-18T18:02:54.393Z,100513.20
2023-04-18T18:05:23.176Z,100508.19
2023-04-18T18:07:53.175Z,100502.09
2023-04-18T18:10:23.807Z,100501.33
2023-04-18T18:12:52.040Z,100495.79
2023-04-18T18:15:20.811Z,100495.50
2023-04-18T18:17:49.827Z,100491.96
2023-04-18T18:20:18.297Z,100493.01
2023-04-18T18:22:46.294Z,100491.17
2023-04-18T18:25:14.166Z,100488.73
2023-04-18T18:27:42.838Z,100486.06
2023-04-18T18:30:11.010Z,100484.00
2023-04-18T18:32:39.039Z,100481.53
2023-04-18T18:35:07.550Z,100478.98
2023-04-18T18:37:35.544Z,100475.35
2023-04-18T18:40:04.995Z,100473.45
2023-04-18T18:42:33.339Z,100471.02
2023-04-18T18:45:01.656Z,100467.84
2023-04-18T18:47:30.619Z,100464.95
2023-04-18T18:49:58.737Z,100462.77
2023-04-18T18:52:29.763Z,100461.90
2023-04-18T18:54:58.144Z,100456.52
2023-04-18T18:57:26.159Z,100456.05
2023-04-18T18:59:55.842Z,100455.01
2023-04-18T19:02:24.441Z,100456.61
2023-04-18T19:04:52.923Z,100452.34
2023-04-18T19:07:21.573Z,100449.09
2023-04-18T19:09:49.593Z,100447.69
2023-04-18T19:12:17.441Z,100439.96
2023-04-18T19:14:46.856Z,100440.77
2023-04-18T19:17:17.635Z,100439.67
2023-04-18T19:19:45.580Z,100439.98
2023-04-18T19:22:13.490Z,100432.48
2023-04-18T19:24:41.341Z,100431.22
2023-04-18T19:27:09.413Z,100429.16
2023-04-18T19:29:37.305Z,100428.56
2023-04-18T19:32:06.453Z,100428.27
2023-04-18T19:34:34.476Z,100429.66
2023-04-18T19:37:02.391Z,100428.86
2023-04-18T19:39:31.465Z,100425.55
2023-04-18T19:41:59.323Z,100424.23
2023-04-18T19:44:27.205Z,100420.20
2023-04-18T19:46:55.155Z,100421.42
2023-04-18T19:49:22.950Z,100422.14
2023-04-18T19:51:52.539Z,100421.56
2023-04-18T19:54:21.854Z,100419.31
2023-04-18T19:56:50.266Z,100415.72
2023-04-18T19:59:18.372Z,100413.10
2023-04-18T20:01:46.353Z,100412.30
2023-04-18T20:04:14.462Z,100413.31
2023-04-18T20:06:42.804Z,100411.28
2023-04-18T20:09:15.418Z,100405.68
2023-04-18T20:11:43.644Z,100406.55
2023-04-18T20:14:11.612Z,100404.88
2023-04-18T20:16:40.853Z,100403.30
2023-04-18T20:19:12.171Z,100403.84
2023-04-18T20:21:40.580Z,100401.95
2023-04-18T20:24:09.859Z,100402.40
2023-04-18T20:26:38.181Z,100398.91
2023-04-18T20:29:06.256Z,100395.84
2023-04-18T20:31:35.116Z,100392.98
2023-04-18T20:34:03.319Z,100391.98
2023-04-18T20:36:32.077Z,100390.84
2023-04-18T20:39:02.387Z,100388.90
2023-04-18T20:41:32.668Z,100384.91
2023-04-18T20:44:05.211Z,100387.50
2023-04-18T20:46:33.270Z,100385.66
2023-04-18T20:49:01.342Z,100378.95
2023-04-18T20:51:29.923Z,100378.60
2023-04-18T20:53:58.023Z,100381.99
2023-04-18T20:56:26.162Z,100381.50
2023-04-18T20:58:54.089Z,100386.04
2023-04-18T21:01:23.045Z,100384.36
2023-04-18T21:03:51.028Z,100379.63
2023-04-18T21:06:22.204Z,100380.84
2023-04-18T21:08:50.817Z,100377.04
2023-04-18T21:11:18.630Z,100372.70
2023-04-18T21:13:46.794Z,100370.61
2023-04-18T21:16:14.776Z,100373.70
2023-04-18T21:18:42.853Z,100368.94
2023-04-18T21:21:11.831Z,100372.11
2023-04-18T21:23:43.829Z,100367.55
2023-04-18T21:26:12.991Z,100367.27
2023-04-18T21:29:01.046Z,100360.42
2023-04-18T21:31:30.111Z,100361.77
2023-04-18T21:33:59.295Z,100362.23
2023-04-18T21:36:27.961Z,100358.16
2023-04-18T21:38:56.489Z,100359.17
2023-04-18T21:41:24.968Z,100355.30
2023-04-18T21:43:52.857Z,100358.43
2023-04-18T21:46:21.062Z,100354.86
2023-04-18T21:48:49.075Z,100347.08
2023-04-18T21:51:17.678Z,100343.70
2023-04-18T21:53:45.937Z,100343.91
2023-04-18T21:56:14.280Z,100338.83
2023-04-18T21:58:42.293Z,100334.58
2023-04-18T22:01:10.317Z,100331.27
2023-04-18T22:03:38.526Z,100326.20
2023-04-18T22:06:06.649Z,100327.95
2023-04-18T22:08:34.875Z,100329.06
2023-04-18T22:11:02.812Z,100328.98
2023-04-18T22:13:33.034Z,100324.21
2023-04-18T22:16:03.466Z,100320.16
2023-04-18T22:18:35.238Z,100320.52
2023-04-18T22:21:03.941Z,100320.54
2023-04-18T22:23:32.234Z,100318.70
2023-04-18T22:26:00.253Z,100316.44
2023-04-18T22:28:28.534Z,100318.59
2023-04-18T22:30:56.483Z,100316.92
2023-04-18T22:33:24.650Z,100317.44
2023-04-18T22:35:52.979Z,100313.77
2023-04-18T22:38:20.864Z,100309.01
2023-04-18T22:40:49.019Z,100305.52
2023-04-18T22:43:22.732Z,100294.91
2023-04-18T22:45:51.668Z,100291.58
2023-04-18T22:48:19.903Z,100282.37
2023-04-18T22:50:50.048Z,100283.13
2023-04-18T22:53:18.112Z,100280.78
2023-04-18T22:55:46.769Z,100278.72
2023-04-18T22:58:14.802Z,100277.39
2023-04-18T23:00:42.804Z,100270.55
2023-04-18T23:03:11.221Z,100272.55
2023-04-18T23:05:39.358Z,100268.23
2023-04-18T23:08:07.300Z,100270.01
2023-04-18T23:10:35.265Z,100270.83
2023-04-18T23:13:03.146Z,100269.02
2023-04-18T23:15:31.314Z,100267.00
2023-04-18T23:17:59.504Z,100261.88
2023-04-18T23:20:27.355Z,100254.83
2023-04-18T23:22:55.942Z,100249.70
2023-04-18T23:25:24.031Z,100248.52
2023-04-18T23:27:51.981Z,100244.29
2023-04-18T23:30:19.876Z,100244.27
2023-04-18T23:32:48.085Z,100244.54
2023-04-18T23:35:16.117Z,100243.23
2023-04-18T23:37:44.184Z,100244.17
2023-04-18T23:40:12.072Z,100239.23
2023-04-18T23:42:40.020Z,100238.56
2023-04-18T23:45:08.128Z,100235.52
2023-04-18T23:47:36.563Z,100234.61
2023-04-18T23:50:05.385Z,100235.63
2023-04-18T23:52:33.640Z,100234.67
2023-04-18T23:55:01.750Z,100235.77
2023-04-18T23:57:29.885Z,100231.02
2023-04-18T23:59:57.718Z,100230.37
